Dades meteomassalio
Diari Summary for Febrer 17, 2017 Units:  Metric    English   Both
« Previous Day
Next Day »
Diari Semanal Mensual Anual Personalitzat
  Maxima: Minima: Mijana:
Temperatura: -17.8 °C -17 °C -13.7 °C
Rosada: -17.8 °C -17.4 °C -14.9 °C
Humitat: Humidity % 65 % 86 %
Velocitat del vent: 0 km/h 0 km/h 3.5 km/h
Racha vent: 0 km/h - -
Vent:- - SE
Pressio: 0 hPa 34740.4 hPa -
Pluja: 7.62 mm    
Historical Graphs
 
 
Tabular Data for Febrer 17, 2017
Time Temperature Dew Point Pressure Wind Wind Speed Wind Gust Humidity Rainfall Rate (Hourly) solar Conditions
-17.8 °C -17.8 °C 0 hPa Calm     Humidity % 0 mm SolarRadiationWatts/m^2 W/m2 Conditions
00:04 -14.6 °C -15.2 °C 34946.9 hPa Calm     92 % 0 mm 0.0 W/m2 CLR
00:09 -14.6 °C -15.3 °C 34933.4 hPa Calm     92 % 0 mm 0.0 W/m2 CLR
00:14 -14.6 °C -15.3 °C 34946.9 hPa Calm     92 % 0 mm 0.0 W/m2 CLR
00:19 -14.7 °C -15.3 °C 34946.9 hPa Calm     92 % 0 mm 0.0 W/m2 CLR
00:24 -14.7 °C -15.3 °C 34946.9 hPa Calm     92 % 0 mm 0.0 W/m2 CLR
00:29 -14.8 °C -15.4 °C 34946.9 hPa Calm     92 % 0 mm 0.0 W/m2 CLR
00:34 -14.8 °C -15.4 °C 34946.9 hPa Calm     92 % 0 mm 0.0 W/m2 CLR
00:39 -14.9 °C -15.5 °C 34946.9 hPa Calm     92 % 0 mm 0.0 W/m2 CLR
00:44 -14.9 °C -15.6 °C 34946.9 hPa Calm     92 % 0 mm 0.0 W/m2 CLR
00:49 -14.9 °C -15.5 °C 34946.9 hPa Calm     93 % 0 mm 0.0 W/m2 CLR
00:54 -14.9 °C -15.4 °C 34946.9 hPa Calm     93 % 0 mm 0.0 W/m2 CLR
00:59 -14.8 °C -15.4 °C 34933.4 hPa Calm     93 % 0 mm 0.0 W/m2 CLR
01:04 -14.9 °C -15.6 °C 34933.4 hPa Calm     92 % 0 mm 0.0 W/m2 CLR
01:09 -14.9 °C -15.6 °C 34933.4 hPa Calm     92 % 0 mm 0.0 W/m2 CLR
01:14 -15.1 °C -15.7 °C 34933.4 hPa Calm     92 % 0 mm 0.0 W/m2 CLR
01:19 -15.1 °C -15.7 °C 34933.4 hPa Calm     92 % 0 mm 0.0 W/m2 CLR
01:24 -15.2 °C -15.8 °C 34933.4 hPa Calm     92 % 0 mm 0.0 W/m2 CLR
01:29 -15.2 °C -15.9 °C 34933.4 hPa Calm     92 % 0 mm 0.0 W/m2 CLR
01:34 -15.2 °C -15.8 °C 34933.4 hPa Calm     93 % 0 mm 0.0 W/m2 CLR
01:39 -15.2 °C -15.8 °C 34933.4 hPa Calm     93 % 0 mm 0.0 W/m2 CLR
01:44 -15.2 °C -15.7 °C 34933.4 hPa Calm     93 % 0 mm 0.0 W/m2 CLR
01:49 -15.2 °C -15.8 °C 34933.4 hPa Calm     93 % 0 mm 0.0 W/m2 CLR
01:54 -15.4 °C -15.9 °C 34933.4 hPa Calm     93 % 0 mm 0.0 W/m2 CLR
01:59 -15.4 °C -16 °C 34933.4 hPa Calm     93 % 0 mm 0.0 W/m2 CLR
02:04 -15.4 °C -16 °C 34933.4 hPa Calm     93 % 0 mm 0.0 W/m2 CLR
02:09 -15.4 °C -16 °C 34923.2 hPa Calm     93 % 0 mm 0.0 W/m2 CLR
02:14 -15.4 °C -16 °C 34923.2 hPa Calm     93 % 0 mm 0.0 W/m2 CLR
02:19 -15.5 °C -16.1 °C 34923.2 hPa Calm     93 % 0 mm 0.0 W/m2 CLR
02:24 -15.6 °C -16.2 °C 34923.2 hPa Calm     93 % 0 mm 0.0 W/m2 CLR
02:29 -15.7 °C -16.2 °C 34923.2 hPa Calm     93 % 0 mm 0.0 W/m2 CLR
02:34 -15.7 °C -16.2 °C 34923.2 hPa Calm     93 % 0 mm 0.0 W/m2 CLR
02:39 -15.6 °C -16.2 °C 34923.2 hPa Calm     93 % 0 mm 0.0 W/m2 CLR
02:44 -15.5 °C -16.1 °C 34923.2 hPa Calm     93 % 0 mm 0.0 W/m2 CLR
02:49 -15.5 °C -16.1 °C 34923.2 hPa Calm     93 % 0 mm 0.0 W/m2 CLR
02:54 -15.6 °C -16.2 °C 34923.2 hPa Calm     93 % 0 mm 0.0 W/m2 CLR
02:59 -15.7 °C -16.3 °C 34923.2 hPa Calm     93 % 0 mm 0.0 W/m2 CLR
03:04 -15.8 °C -16.3 °C 34923.2 hPa Calm     93 % 0 mm 0.0 W/m2 CLR
03:09 -15.8 °C -16.4 °C 34909.7 hPa Calm     93 % 0 mm 0.0 W/m2 CLR
03:14 -15.8 °C -16.4 °C 34909.7 hPa Calm     93 % 0 mm 0.0 W/m2 CLR
03:19 -15.9 °C -16.4 °C 34909.7 hPa Calm     93 % 0 mm 0.0 W/m2 CLR
03:24 -15.8 °C -16.4 °C 34909.7 hPa Calm     93 % 0 mm 0.0 W/m2 CLR
03:29 -15.9 °C -16.4 °C 34909.7 hPa Calm     93 % 7.62 mm 0.0 W/m2 RA
03:34 -15.9 °C -16.5 °C 34909.7 hPa Calm     93 % 7.62 mm 0.0 W/m2 CLR
03:39 -15.9 °C -16.5 °C 34909.7 hPa Calm     93 % 7.62 mm 0.0 W/m2 CLR
03:44 -16 °C -16.6 °C 34909.7 hPa Calm     93 % 7.62 mm 0.0 W/m2 CLR
03:49 -16.1 °C -16.6 °C 34909.7 hPa Calm     93 % 7.62 mm 0.0 W/m2 CLR
03:54 -16.1 °C -16.6 °C 34909.7 hPa Calm     93 % 7.62 mm 0.0 W/m2 CLR
03:59 -16.1 °C -16.6 °C 34909.7 hPa Calm     93 % 7.62 mm 0.0 W/m2 CLR
04:04 -16 °C -16.6 °C 34899.5 hPa Calm     93 % 7.62 mm 0.0 W/m2 CLR
04:09 -15.9 °C -16.5 °C 34899.5 hPa Calm     93 % 7.62 mm 0.0 W/m2 CLR
04:14 -15.9 °C -16.5 °C 34899.5 hPa Calm     93 % 7.62 mm 0.0 W/m2 CLR
04:19 -15.9 °C -16.5 °C 34899.5 hPa Calm     93 % 7.62 mm 0.0 W/m2 CLR
04:24 -15.9 °C -16.4 °C 34899.5 hPa Calm     94 % 7.62 mm 0.0 W/m2 CLR
04:29 -15.9 °C -16.5 °C 34899.5 hPa Calm     93 % 0 mm 0.0 W/m2 CLR
04:34 -16 °C -16.6 °C 34899.5 hPa Calm     93 % 0 mm 0.0 W/m2 CLR
04:39 -16.2 °C -16.7 °C 34899.5 hPa Calm     93 % 0 mm 0.0 W/m2 CLR
04:44 -16.3 °C -16.8 °C 34899.5 hPa Calm     93 % 0 mm 0.0 W/m2 CLR
04:49 -16.3 °C -16.9 °C 34899.5 hPa Calm     93 % 0 mm 0.0 W/m2 CLR
04:54 -16.3 °C -16.9 °C 34889.3 hPa Calm     93 % 0 mm 0.0 W/m2 CLR
04:59 -16.4 °C -16.9 °C 34889.3 hPa Calm     93 % 0 mm 0.0 W/m2 CLR
05:04 -16.4 °C -17 °C 34889.3 hPa Calm     93 % 0 mm 0.0 W/m2 CLR
05:09 -16.3 °C -16.9 °C 34889.3 hPa Calm     93 % 0 mm 0.0 W/m2 CLR
05:14 -16.4 °C -16.9 °C 34889.3 hPa Calm     94 % 0 mm 0.0 W/m2 CLR
05:19 -16.4 °C -16.9 °C 34889.3 hPa Calm     93 % 0 mm 0.0 W/m2 CLR
05:24 -16.4 °C -17 °C 34889.3 hPa Calm     93 % 0 mm 0.0 W/m2 CLR
05:29 -16.5 °C -17.1 °C 34889.3 hPa Calm     93 % 0 mm 0.0 W/m2 CLR
05:34 -16.5 °C -17 °C 34889.3 hPa Calm     94 % 0 mm 0.0 W/m2 CLR
05:39 -16.5 °C -17 °C 34889.3 hPa Calm     94 % 0 mm 0.0 W/m2 CLR
05:44 -16.5 °C -17 °C 34889.3 hPa Calm     94 % 0 mm 0.0 W/m2 CLR
05:49 -16.5 °C -17 °C 34889.3 hPa Calm     94 % 0 mm 0.0 W/m2 CLR
05:54 -16.5 °C -17 °C 34875.8 hPa Calm     94 % 0 mm 0.0 W/m2 CLR
05:59 -16.6 °C -17.1 °C 34889.3 hPa Calm     93 % 0 mm 0.0 W/m2 CLR
06:04 -16.5 °C -17.1 °C 34875.8 hPa Calm     93 % 0 mm 0.0 W/m2 CLR
06:09 -16.5 °C -17 °C 34875.8 hPa Calm     94 % 0 mm 0.0 W/m2 CLR
06:15 -16.5 °C -17 °C 34889.3 hPa Calm     94 % 0 mm 0.0 W/m2 CLR
06:20 -16.5 °C -17 °C 34875.8 hPa Calm     94 % 0 mm 0.0 W/m2 CLR
06:25 -16.4 °C -16.9 °C 34875.8 hPa Calm     94 % 0 mm 0.0 W/m2 CLR
06:30 -16.5 °C -17 °C 34875.8 hPa Calm     94 % 0 mm 0.0 W/m2 CLR
06:35 -16.6 °C -17.2 °C 34875.8 hPa Calm     93 % 0 mm 0.0 W/m2 CLR
06:40 -16.7 °C -17.3 °C 34875.8 hPa Calm     93 % 0 mm 0.0 W/m2 CLR
06:45 -16.7 °C -17.2 °C 34875.8 hPa Calm     94 % 0 mm 0.0 W/m2 CLR
06:50 -16.8 °C -17.3 °C 34875.8 hPa Calm     93 % 0 mm 0.0 W/m2 CLR
06:55 -16.7 °C -17.2 °C 34875.8 hPa Calm     94 % 0 mm 0.0 W/m2 CLR
07:00 -16.8 °C -17.3 °C 34875.8 hPa Calm     94 % 0 mm 0.0 W/m2 CLR
07:05 -16.8 °C -17.4 °C 34875.8 hPa Calm     93 % 0 mm 0.0 W/m2 CLR
07:10 -16.9 °C -17.4 °C 34875.8 hPa Calm     94 % 0 mm 0.0 W/m2 CLR
07:15 -16.9 °C -17.4 °C 34889.3 hPa Calm     94 % 0 mm 0.0 W/m2 CLR
07:20 -16.9 °C -17.4 °C 34889.3 hPa Calm     94 % 0 mm 0.0 W/m2 CLR
07:25 -16.9 °C -17.4 °C 34889.3 hPa Calm     94 % 0 mm 0.0 W/m2 CLR
07:30 -16.9 °C -17.4 °C 34889.3 hPa Calm     94 % 0 mm 0.0 W/m2 CLR
07:35 -16.9 °C -17.4 °C 34889.3 hPa Calm     94 % 0 mm 0.0 W/m2 CLR
07:40 -16.9 °C -17.4 °C 34889.3 hPa Calm     94 % 0 mm 0.0 W/m2 CLR
07:45 -17 °C -17.4 °C 34889.3 hPa Calm     94 % 0 mm 0.0 W/m2 OVC
07:50 -17 °C -17.4 °C 34889.3 hPa Calm     94 % 0 mm 0.0 W/m2 OVC
07:55 -16.9 °C -17.4 °C 34889.3 hPa Calm     94 % 0 mm 7.0 W/m2 OVC
08:00 -17 °C -17.4 °C 34899.5 hPa Calm     94 % 0 mm 11.0 W/m2 BKN
08:05 -17 °C -17.4 °C 34899.5 hPa Calm     94 % 0 mm 12.0 W/m2 BKN
08:10 -16.9 °C -17.4 °C 34899.5 hPa Calm     94 % 0 mm 18.0 W/m2 BKN
08:15 -16.9 °C -17.4 °C 34899.5 hPa Calm     94 % 0 mm 23.0 W/m2 BKN
08:20 -16.9 °C -17.4 °C 34899.5 hPa Calm     94 % 0 mm 28.0 W/m2 BKN
08:25 -16.9 °C -17.4 °C 34899.5 hPa Calm     94 % 0 mm 35.0 W/m2 BKN
08:30 -16.8 °C -17.3 °C 34899.5 hPa Calm     94 % 0 mm 44.0 W/m2 BKN
08:35 -16.8 °C -17.3 °C 34899.5 hPa Calm     94 % 0 mm 51.0 W/m2 SCT
08:40 -16.6 °C -17.1 °C 34909.7 hPa Calm     94 % 0 mm 65.0 W/m2 SCT
08:45 -16.6 °C -17.1 °C 34909.7 hPa Calm     94 % 0 mm 74.0 W/m2 FEW
08:50 -16.5 °C -17 °C 34909.7 hPa Calm     94 % 0 mm 67.0 W/m2 FEW
08:55 -16.4 °C -16.9 °C 34909.7 hPa Calm     94 % 0 mm 104.0 W/m2 FEW
09:00 -16.3 °C -16.8 °C 34909.7 hPa Calm     94 % 0 mm 116.0 W/m2 CLR
09:05 -16.2 °C -16.7 °C 34909.7 hPa Calm     94 % 0 mm 135.0 W/m2 CLR
09:10 -16 °C -16.5 °C 34899.5 hPa Calm     94 % 0 mm 151.0 W/m2 CLR
09:15 -15.8 °C -16.3 °C 34899.5 hPa Calm     94 % 0 mm 114.0 W/m2 CLR
09:20 -15.6 °C -16.1 °C 34899.5 hPa Calm     94 % 0 mm 188.0 W/m2 CLR
09:25 -15.4 °C -15.9 °C 34899.5 hPa Calm     94 % 0 mm 199.0 W/m2 CLR
09:30 -15.3 °C -15.8 °C 34899.5 hPa Calm     94 % 0 mm 216.0 W/m2 CLR
09:35 -15.1 °C -15.6 °C 34899.5 hPa Calm     94 % 0 mm 232.0 W/m2 CLR
09:40 -14.9 °C -15.4 °C 34899.5 hPa Calm     94 % 0 mm 246.0 W/m2 CLR
09:45 -14.6 °C -15.1 °C 34899.5 hPa Calm     94 % 0 mm 255.0 W/m2 CLR
09:50 -14.5 °C -15 °C 34899.5 hPa Calm     94 % 0 mm 265.0 W/m2 CLR
09:55 -14.3 °C -14.8 °C 34899.5 hPa Calm     94 % 0 mm 279.0 W/m2 CLR
10:00 -14.1 °C -14.7 °C 34899.5 hPa Calm     93 % 0 mm 297.0 W/m2 CLR
10:05 -13.9 °C -14.6 °C 34899.5 hPa Calm     93 % 0 mm 306.0 W/m2 CLR
10:10 -13.8 °C -14.5 °C 34899.5 hPa Calm     92 % 0 mm 322.0 W/m2 CLR
10:15 -13.7 °C -14.3 °C 34899.5 hPa Calm     92 % 0 mm 327.0 W/m2 CLR
10:20 -13.4 °C -14.1 °C 34899.5 hPa Calm     92 % 0 mm 338.0 W/m2 CLR
10:25 -13.3 °C -14.1 °C 34899.5 hPa Calm     91 % 0 mm 348.0 W/m2 CLR
10:30 -13.1 °C -13.9 °C 34899.5 hPa Calm     90 % 0 mm 360.0 W/m2 CLR
10:35 -12.9 °C -13.9 °C 34899.5 hPa Calm     89 % 0 mm 378.0 W/m2 CLR
10:40 -12.8 °C -13.8 °C 34899.5 hPa Calm     88 % 0 mm 394.0 W/m2 CLR
10:45 -12.6 °C -13.8 °C 34899.5 hPa Calm     87 % 0 mm 408.0 W/m2 CLR
10:50 -12.3 °C -13.5 °C 34889.3 hPa Calm     87 % 0 mm 417.0 W/m2 CLR
10:55 -12.1 °C -13.3 °C 34889.3 hPa Calm     86 % 0 mm 413.0 W/m2 CLR
11:00 -11.9 °C -13.3 °C 34889.3 hPa NW 15 km/h 15 km/h 85 % 0 mm 432.0 W/m2 CLR
11:05 -11.8 °C -13.3 °C 34889.3 hPa NNW 15 km/h 15 km/h 84 % 0 mm 438.0 W/m2 CLR
11:10 -11.8 °C -13.3 °C 34889.3 hPa NW 15.6 km/h 15.6 km/h 84 % 0 mm 455.0 W/m2 CLR
11:15 -11.8 °C -13.3 °C 34889.3 hPa NNW 12.9 km/h 12.9 km/h 84 % 0 mm 462.0 W/m2 CLR
11:20 -11.8 °C -13.3 °C 34889.3 hPa NW 11.9 km/h 11.9 km/h 84 % 0 mm 473.0 W/m2 CLR
11:25 -11.7 °C -13.2 °C 34875.8 hPa NW 12.9 km/h 12.9 km/h 84 % 0 mm 480.0 W/m2 CLR
11:30 -11.6 °C -13.1 °C 34875.8 hPa NW 15 km/h 15 km/h 84 % 0 mm 492.0 W/m2 CLR
11:35 -11.6 °C -12.9 °C 34875.8 hPa NW 12.9 km/h 12.9 km/h 85 % 0 mm 499.0 W/m2 CLR
11:40 -11.5 °C -12.8 °C 34875.8 hPa NW 12.9 km/h 12.9 km/h 85 % 0 mm 515.0 W/m2 CLR
11:45 -11.4 °C -12.9 °C 34875.8 hPa North 11.9 km/h 11.9 km/h 84 % 0 mm 517.0 W/m2 CLR
11:50 -11.3 °C -12.9 °C 34875.8 hPa NNW 10.3 km/h 10.3 km/h 83 % 0 mm 508.0 W/m2 CLR
11:55 -11.3 °C -12.8 °C 34875.8 hPa North 9 km/h 9 km/h 83 % 0 mm 527.0 W/m2 CLR
12:00 -11.2 °C -12.7 °C 34875.8 hPa NNW 12.9 km/h 12.9 km/h 83 % 0 mm 534.0 W/m2 CLR
12:05 -11.2 °C -12.9 °C 34865.6 hPa Calm     81 % 0 mm 536.0 W/m2 CLR
12:10 -11.1 °C -12.7 °C 34865.6 hPa NW 9 km/h 9 km/h 82 % 0 mm 543.0 W/m2 CLR
12:15 -10.9 °C -12.7 °C 34865.6 hPa NNW 15 km/h 15 km/h 81 % 0 mm 552.0 W/m2 CLR
12:20 -10.9 °C -12.7 °C 34865.6 hPa NNE 15 km/h 15 km/h 80 % 0 mm 559.0 W/m2 CLR
12:25 -10.8 °C -12.7 °C 34865.6 hPa NE 9 km/h 9 km/h 80 % 0 mm 559.0 W/m2 CLR
12:30 -10.8 °C -12.7 °C 34865.6 hPa NNE 15 km/h 15 km/h 80 % 0 mm 559.0 W/m2 CLR
12:35 -10.7 °C -12.4 °C 34865.6 hPa NE 20.9 km/h 20.9 km/h 81 % 0 mm 575.0 W/m2 CLR
12:40 -10.7 °C -12.4 °C 34865.6 hPa NNE 17.9 km/h 17.9 km/h 81 % 0 mm 580.0 W/m2 CLR
12:45 -10.8 °C -12.6 °C 34852.1 hPa NNE 15 km/h 15 km/h 81 % 0 mm 589.0 W/m2 CLR
12:50 -10.8 °C -12.4 °C 34852.1 hPa North 11.9 km/h 11.9 km/h 82 % 0 mm 591.0 W/m2 CLR
12:55 -10.8 °C -12.4 °C 34852.1 hPa North 15 km/h 15 km/h 83 % 0 mm 584.0 W/m2 CLR
13:00 -10.8 °C -12.4 °C 34841.9 hPa NNE 10.3 km/h 10.3 km/h 82 % 0 mm 592.0 W/m2 CLR
13:05 -10.8 °C -12.4 °C 34841.9 hPa ENE 9 km/h 9 km/h 82 % 0 mm 592.0 W/m2 CLR
13:10 -10.7 °C -12.3 °C 34841.9 hPa NE 15.6 km/h 15.6 km/h 82 % 0 mm 594.0 W/m2 CLR
13:15 -10.7 °C -12.4 °C 34841.9 hPa NE 15 km/h 15 km/h 81 % 0 mm 599.0 W/m2 CLR
13:20 -10.8 °C -12.4 °C 34841.9 hPa ENE 17.9 km/h 17.9 km/h 82 % 0 mm 601.0 W/m2 CLR
13:25 -10.8 °C -12.4 °C 34831.8 hPa ENE 11.9 km/h 11.9 km/h 82 % 0 mm 598.0 W/m2 CLR
13:30 -10.8 °C -12.4 °C 34831.8 hPa ENE 17.9 km/h 17.9 km/h 82 % 0 mm 596.0 W/m2 CLR
13:35 -10.8 °C -12.6 °C 34831.8 hPa NE 23.8 km/h 23.8 km/h 81 % 0 mm 599.0 W/m2 CLR
13:40 -10.8 °C -12.4 °C 34831.8 hPa NE 17.9 km/h 17.9 km/h 82 % 0 mm 596.0 W/m2 CLR
13:45 -10.7 °C -12.3 °C 34818.2 hPa NE 10.3 km/h 10.3 km/h 83 % 0 mm 601.0 W/m2 CLR
13:50 -10.7 °C -12.3 °C 34831.8 hPa ENE 20.9 km/h 20.9 km/h 82 % 0 mm 598.0 W/m2 CLR
13:55 -10.7 °C -12.4 °C 34818.2 hPa NE 17.9 km/h 17.9 km/h 82 % 0 mm 589.0 W/m2 CLR
14:00 -10.7 °C -12.4 °C 34818.2 hPa NE 17.9 km/h 17.9 km/h 82 % 0 mm 587.0 W/m2 CLR
14:05 -10.7 °C -12.3 °C 34818.2 hPa ENE 9 km/h 9 km/h 82 % 0 mm 582.0 W/m2 CLR
14:10 -10.6 °C -12.3 °C 34818.2 hPa NNE 9 km/h 9 km/h 81 % 0 mm 578.0 W/m2 CLR
14:15 -10.6 °C -12.3 °C 34808.1 hPa ENE 18.2 km/h 18.2 km/h 81 % 0 mm 573.0 W/m2 CLR
14:20 -10.6 °C -12.3 °C 34808.1 hPa NE 17.9 km/h 17.9 km/h 81 % 0 mm 570.0 W/m2 CLR
14:25 -10.6 °C -12.3 °C 34808.1 hPa NE 20.9 km/h 20.9 km/h 81 % 0 mm 568.0 W/m2 CLR
14:30 -10.5 °C -12.3 °C 34808.1 hPa NE 18.2 km/h 18.2 km/h 81 % 0 mm 561.0 W/m2 CLR
14:35 -10.4 °C -12.3 °C 34797.9 hPa ENE 18.2 km/h 18.2 km/h 80 % 0 mm 548.0 W/m2 CLR
14:40 -10.4 °C -12.3 °C 34797.9 hPa NE 17.9 km/h 17.9 km/h 80 % 0 mm 548.0 W/m2 CLR
14:45 -10.4 °C -12.3 °C 34797.9 hPa ENE 9 km/h 9 km/h 80 % 0 mm 538.0 W/m2 CLR
14:50 -10.3 °C -12.2 °C 34797.9 hPa ENE 7.7 km/h 7.7 km/h 80 % 0 mm 534.0 W/m2 CLR
14:55 -10.2 °C -12.1 °C 34784.4 hPa ENE 11.9 km/h 11.9 km/h 80 % 0 mm 526.0 W/m2 CLR
15:00 -10.1 °C -12.2 °C 34784.4 hPa NE 12.9 km/h 12.9 km/h 78 % 0 mm 515.0 W/m2 CLR
15:05 -10.1 °C -12.2 °C 34784.4 hPa ENE 17.9 km/h 17.9 km/h 78 % 0 mm 510.0 W/m2 CLR
15:10 -10.1 °C -12.2 °C 34784.4 hPa NE 11.9 km/h 11.9 km/h 78 % 0 mm 506.0 W/m2 CLR
15:15 -10.1 °C -12.2 °C 34784.4 hPa NE 17.9 km/h 17.9 km/h 78 % 0 mm 494.0 W/m2 CLR
15:20 -10.1 °C -12.3 °C 34784.4 hPa NE 11.9 km/h 11.9 km/h 77 % 0 mm 466.0 W/m2 CLR
15:25 -10.1 °C -12.3 °C 34774.2 hPa ENE 15 km/h 15 km/h 77 % 0 mm 462.0 W/m2 CLR
15:30 -10.1 °C -12.4 °C 34774.2 hPa East 15 km/h 15 km/h 76 % 0 mm 457.0 W/m2 CLR
15:35 -10.1 °C -12.4 °C 34774.2 hPa ENE 20.9 km/h 20.9 km/h 76 % 0 mm 448.0 W/m2 CLR
15:41 -10.1 °C -12.3 °C 34774.2 hPa NE 10.3 km/h 10.3 km/h 77 % 0 mm 427.0 W/m2 CLR
15:46 -10.1 °C -12.2 °C 34774.2 hPa NE 11.9 km/h   77 % 0 mm 418.0 W/m2 CLR
15:51 -9.9 °C -12.2 °C 34774.2 hPa ENE 12.9 km/h 12.9 km/h 76 % 0 mm 418.0 W/m2 CLR
15:56 -9.8 °C -12.3 °C 34760.7 hPa NE 6 km/h 6 km/h 75 % 0 mm 404.0 W/m2 CLR
16:01 -9.8 °C -12.4 °C 34760.7 hPa East 12.9 km/h 12.9 km/h 74 % 0 mm 388.0 W/m2 CLR
16:06 -9.9 °C -12.4 °C 34760.7 hPa NE 11.9 km/h 11.9 km/h 74 % 0 mm 332.0 W/m2 CLR
16:11 -9.8 °C -12.4 °C 34760.7 hPa ENE 7.7 km/h 7.7 km/h 74 % 0 mm 355.0 W/m2 CLR
16:16 -9.8 °C -12.6 °C 34760.7 hPa ENE 9 km/h 9 km/h 72 % 0 mm 346.0 W/m2 CLR
16:21 -9.8 °C -12.6 °C 34750.5 hPa ENE 9 km/h   72 % 0 mm 306.0 W/m2 CLR
16:26 -9.8 °C -12.6 °C 34750.5 hPa NE 3.1 km/h 3.1 km/h 72 % 0 mm 320.0 W/m2 CLR
16:31 -9.7 °C -12.5 °C 34750.5 hPa Calm     72 % 0 mm 302.0 W/m2 CLR
16:36 -9.6 °C -12.9 °C 34750.5 hPa NNE 6 km/h 6 km/h 67 % 0 mm 294.0 W/m2 CLR
16:41 -9.5 °C -12.9 °C 34750.5 hPa NE 2.6 km/h 3.7 km/h 67 % 0 mm 283.0 W/m2 CLR
16:46 -9.5 °C -12.7 °C 34750.5 hPa NE 10.3 km/h 10.3 km/h 68 % 0 mm 267.0 W/m2 CLR
16:51 -9.6 °C -12.6 °C 34750.5 hPa Calm     70 % 0 mm 253.0 W/m2 CLR
16:56 -9.6 °C -12.8 °C 34750.5 hPa Calm     68 % 0 mm 234.0 W/m2 CLR
17:01 -9.5 °C -13.1 °C 34750.5 hPa Calm     65 % 0 mm 223.0 W/m2 CLR
17:06 -9.5 °C -13.1 °C 34750.5 hPa North 17.9 km/h 17.9 km/h 65 % 0 mm 202.0 W/m2 CLR
17:11 -9.6 °C -13 °C 34750.5 hPa North 3.1 km/h 3.1 km/h 66 % 0 mm 190.0 W/m2 CLR
17:16 -9.6 °C -13.2 °C 34750.5 hPa NNW 11.9 km/h 11.9 km/h 65 % 0 mm 171.0 W/m2 CLR
17:21 -9.7 °C -13.3 °C 34750.5 hPa North 10.3 km/h 10.3 km/h 65 % 0 mm 155.0 W/m2 CLR
17:26 -9.8 °C -13.3 °C 34740.4 hPa North 9 km/h 9 km/h 66 % 0 mm 139.0 W/m2 CLR
17:31 -9.8 °C -13.3 °C 34740.4 hPa North 11.9 km/h 11.9 km/h 66 % 0 mm 123.0 W/m2 CLR
17:36 -9.9 °C -13.4 °C 34740.4 hPa North 5.1 km/h 5.1 km/h 66 % 0 mm 107.0 W/m2 CLR
17:41 -9.9 °C -13.4 °C 34740.4 hPa North 9 km/h 9 km/h 66 % 0 mm 93.0 W/m2 CLR
17:46 -10 °C -13.4 °C 34740.4 hPa North 3.1 km/h   67 % 0 mm 81.0 W/m2 FEW
17:51 -10.1 °C -13.4 °C 34740.4 hPa Calm     67 % 0 mm 58.0 W/m2 SCT
17:56 -10.1 °C -13.4 °C 34740.4 hPa Calm     68 % 0 mm 53.0 W/m2 SCT
18:01 -10.2 °C -13.3 °C 34740.4 hPa North 9 km/h 9 km/h 69 % 0 mm 40.0 W/m2 BKN
18:06 -10.3 °C -13.2 °C 34740.4 hPa Calm     71 % 0 mm 32.0 W/m2 BKN
18:11 -10.4 °C -13.2 °C 34740.4 hPa Calm     72 % 0 mm 23.0 W/m2 BKN
18:16 -10.5 °C -13.2 °C 34740.4 hPa Calm     72 % 0 mm 16.0 W/m2 BKN
18:21 -10.6 °C -13.2 °C 34740.4 hPa Calm     73 % 0 mm 12.0 W/m2 BKN
18:26 -10.8 °C -13.3 °C 34740.4 hPa Calm     74 % 0 mm 11.0 W/m2 BKN
18:31 -10.9 °C -13.3 °C 34740.4 hPa Calm     75 % 0 mm 7.0 W/m2 BKN
18:36 -11 °C -13.3 °C 34740.4 hPa Calm     76 % 0 mm 5.0 W/m2 OVC
18:41 -11.1 °C -13.4 °C 34740.4 hPa Calm     76 % 0 mm 0.0 W/m2 OVC
18:46 -11.2 °C -13.3 °C 34740.4 hPa Calm     77 % 0 mm 0.0 W/m2 OVC
18:51 -11.2 °C -13.4 °C 34740.4 hPa Calm     77 % 0 mm 0.0 W/m2 CLR
18:56 -11.3 °C -13.5 °C 34740.4 hPa Calm     77 % 0 mm 0.0 W/m2 CLR
19:01 -11.5 °C -13.6 °C 34740.4 hPa Calm     78 % 0 mm 0.0 W/m2 CLR
19:06 -11.6 °C -13.6 °C 34750.5 hPa Calm     79 % 0 mm 0.0 W/m2 CLR
19:11 -11.8 °C -13.7 °C 34740.4 hPa Calm     80 % 0 mm 0.0 W/m2 CLR
19:16 -12 °C -13.8 °C 34750.5 hPa Calm     80 % 0 mm 0.0 W/m2 CLR
19:21 -12.2 °C -13.9 °C 34750.5 hPa Calm     81 % 0 mm 0.0 W/m2 CLR
19:26 -12.4 °C -13.9 °C 34750.5 hPa Calm     83 % 0 mm 0.0 W/m2 CLR
19:31 -12.5 °C -14 °C 34750.5 hPa Calm     83 % 0 mm 0.0 W/m2 CLR
19:36 -12.7 °C -14.1 °C 34750.5 hPa Calm     84 % 0 mm 0.0 W/m2 CLR
19:41 -12.8 °C -14.2 °C 34750.5 hPa Calm     84 % 0 mm 0.0 W/m2 CLR
19:46 -12.9 °C -14.2 °C 34750.5 hPa Calm     85 % 0 mm 0.0 W/m2 CLR
19:51 -13 °C -14.3 °C 34750.5 hPa Calm     85 % 0 mm 0.0 W/m2 CLR
19:56 -13.2 °C -14.5 °C 34750.5 hPa Calm     85 % 0 mm 0.0 W/m2 CLR
20:01 -13.3 °C -14.5 °C 34750.5 hPa Calm     86 % 0 mm 0.0 W/m2 CLR
20:06 -13.3 °C -14.5 °C 34760.7 hPa Calm     87 % 0 mm 0.0 W/m2 CLR
20:11 -13.4 °C -14.6 °C 34760.7 hPa Calm     87 % 0 mm 0.0 W/m2 CLR
20:16 -13.6 °C -14.7 °C 34760.7 hPa Calm     87 % 0 mm 0.0 W/m2 CLR
20:21 -13.6 °C -14.7 °C 34760.7 hPa Calm     87 % 0 mm 0.0 W/m2 CLR
20:26 -13.7 °C -14.8 °C 34760.7 hPa Calm   0.3 km/h 87 % 0 mm 0.0 W/m2 CLR
20:31 -13.8 °C -14.8 °C 34760.7 hPa Calm     88 % 0 mm 0.0 W/m2 CLR
20:36 -13.9 °C -14.9 °C 34760.7 hPa Calm     88 % 0 mm 0.0 W/m2 CLR
20:41 -13.9 °C -14.9 °C 34760.7 hPa Calm     89 % 0 mm 0.0 W/m2 CLR
20:46 -14.1 °C -14.9 °C 34760.7 hPa Calm     89 % 0 mm 0.0 W/m2 CLR
20:51 -14.1 °C -15.1 °C 34774.2 hPa Calm     89 % 0 mm 0.0 W/m2 CLR
20:56 -14.2 °C -15.1 °C 34774.2 hPa Calm     89 % 0 mm 0.0 W/m2 CLR
21:01 -14.2 °C -15.1 °C 34774.2 hPa Calm     89 % 0 mm 0.0 W/m2 CLR
21:06 -14.3 °C -15.1 °C 34774.2 hPa Calm     90 % 0 mm 0.0 W/m2 CLR
21:11 -14.3 °C -15.2 °C 34774.2 hPa Calm     90 % 0 mm 0.0 W/m2 CLR
21:16 -14.4 °C -15.2 °C 34774.2 hPa Calm     90 % 0 mm 0.0 W/m2 CLR
21:21 -14.5 °C -15.3 °C 34774.2 hPa Calm     90 % 0 mm 0.0 W/m2 CLR
21:26 -14.6 °C -15.4 °C 34774.2 hPa Calm     90 % 0 mm 0.0 W/m2 CLR
21:31 -14.6 °C -15.4 °C 34774.2 hPa Calm     90 % 0 mm 0.0 W/m2 CLR
21:36 -14.7 °C -15.5 °C 34774.2 hPa Calm     90 % 0 mm 0.0 W/m2 CLR
21:41 -14.7 °C -15.6 °C 34774.2 hPa Calm     90 % 0 mm 0.0 W/m2 CLR
21:46 -14.7 °C -15.4 °C 34784.4 hPa Calm     91 % 0 mm 0.0 W/m2 CLR
21:51 -14.7 °C -15.4 °C 34784.4 hPa Calm     91 % 0 mm 0.0 W/m2 CLR
21:56 -14.8 °C -15.5 °C 34784.4 hPa Calm     91 % 0 mm 0.0 W/m2 CLR
22:01 -14.8 °C -15.6 °C 34784.4 hPa Calm     91 % 0 mm 0.0 W/m2 CLR
22:06 -14.8 °C -15.6 °C 34784.4 hPa Calm     91 % 0 mm 0.0 W/m2 CLR
22:11 -14.9 °C -15.6 °C 34784.4 hPa Calm     91 % 0 mm 0.0 W/m2 CLR
22:16 -14.9 °C -15.7 °C 34784.4 hPa Calm     91 % 0 mm 0.0 W/m2 CLR
22:21 -15.1 °C -15.8 °C 34784.4 hPa Calm     91 % 0 mm 0.0 W/m2 CLR
22:26 -15.2 °C -15.9 °C 34784.4 hPa Calm     91 % 0 mm 0.0 W/m2 CLR
22:31 -15.1 °C -15.8 °C 34774.2 hPa Calm     92 % 0 mm 0.0 W/m2 CLR
22:36 -15.1 °C -15.9 °C 34784.4 hPa Calm     91 % 0 mm 0.0 W/m2 CLR
22:41 -15.2 °C -16 °C 34784.4 hPa Calm     91 % 0 mm 0.0 W/m2 CLR
22:46 -15.3 °C -16.1 °C 34784.4 hPa Calm     91 % 0 mm 0.0 W/m2 CLR
22:51 -15.4 °C -16.1 °C 34784.4 hPa Calm     91 % 0 mm 0.0 W/m2 CLR
22:56 -15.4 °C -16.1 °C 34784.4 hPa Calm     91 % 0 mm 0.0 W/m2 CLR
23:01 -15.4 °C -16.1 °C 34784.4 hPa Calm     92 % 0 mm 0.0 W/m2 CLR
23:06 -15.4 °C -16.1 °C 34784.4 hPa Calm     92 % 0 mm 0.0 W/m2 CLR
23:11 -15.5 °C -16.2 °C 34774.2 hPa Calm     92 % 0 mm 0.0 W/m2 CLR
23:16 -15.5 °C -16.2 °C 34774.2 hPa Calm     92 % 0 mm 0.0 W/m2 CLR
23:21 -15.5 °C -16.2 °C 34774.2 hPa Calm     92 % 0 mm 0.0 W/m2 CLR
23:26 -15.6 °C -16.2 °C 34774.2 hPa Calm     92 % 0 mm 0.0 W/m2 CLR
23:31 -15.6 °C -16.2 °C 34774.2 hPa Calm     92 % 0 mm 0.0 W/m2 CLR
23:36 -15.7 °C -16.3 °C 34774.2 hPa Calm     92 % 0 mm 0.0 W/m2 CLR
23:41 -15.7 °C -16.3 °C 34774.2 hPa Calm     92 % 0 mm 0.0 W/m2 CLR
23:47 -15.7 °C -16.4 °C 34774.2 hPa Calm     92 % 0 mm 0.0 W/m2 CLR
23:52 -15.8 °C -16.4 °C 34774.2 hPa Calm     92 % 0 mm 0.0 W/m2 CLR
23:57 -15.8 °C -16.5 °C 34774.2 hPa Calm     92 % 0 mm 0.0 W/m2 CLR
Lo Temps de Massalio
Compliments of Weather Underground - 1.25 mb